createdAt,value
2022-09-04T00:01:50.032Z,16.70
2022-09-04T00:04:49.466Z,16.70
2022-09-04T00:07:17.201Z,16.80
2022-09-04T00:09:53.880Z,16.80
2022-09-04T00:12:33.872Z,16.80
2022-09-04T00:15:42.079Z,16.80
2022-09-04T00:18:42.055Z,16.80
2022-09-04T00:21:29.995Z,16.80
2022-09-04T00:24:25.740Z,16.80
2022-09-04T00:27:05.380Z,16.90
2022-09-04T00:29:48.636Z,16.80
2022-09-04T00:32:23.255Z,16.80
2022-09-04T00:35:10.276Z,16.70
2022-09-04T00:37:53.239Z,16.70
2022-09-04T00:40:35.680Z,16.70
2022-09-04T00:43:18.913Z,16.70
2022-09-04T00:45:56.911Z,16.70
2022-09-04T00:48:53.933Z,16.70
2022-09-04T00:51:27.474Z,16.70
2022-09-04T00:54:23.731Z,16.70
2022-09-04T00:57:26.659Z,16.60
2022-09-04T01:00:16.284Z,16.60
2022-09-04T01:03:14.309Z,16.70
2022-09-04T01:06:04.073Z,16.60
2022-09-04T01:09:05.028Z,16.60
2022-09-04T01:11:55.655Z,16.50
2022-09-04T01:14:49.120Z,16.50
2022-09-04T01:17:44.852Z,16.50
2022-09-04T01:20:46.949Z,16.50
2022-09-04T01:23:38.676Z,16.40
2022-09-04T01:26:33.770Z,16.40
2022-09-04T01:29:10.596Z,16.30
2022-09-04T01:32:00.080Z,16.30
2022-09-04T01:34:40.329Z,16.30
2022-09-04T01:37:38.470Z,16.40
2022-09-04T01:40:11.873Z,16.40
2022-09-04T01:43:04.094Z,16.40
2022-09-04T01:45:55.817Z,16.40
2022-09-04T01:48:48.578Z,16.40
2022-09-04T01:51:23.722Z,16.50
2022-09-04T01:54:27.238Z,16.50
2022-09-04T01:57:32.043Z,16.50
2022-09-04T02:00:02.450Z,16.50
2022-09-04T02:03:12.626Z,16.50
2022-09-04T02:05:49.522Z,16.50
2022-09-04T02:08:55.468Z,16.50
2022-09-04T02:11:28.173Z,16.50
2022-09-04T02:14:04.304Z,16.50
2022-09-04T02:16:46.989Z,16.60
2022-09-04T02:19:32.602Z,16.60
2022-09-04T02:22:31.786Z,16.60
2022-09-04T02:25:11.743Z,16.60
2022-09-04T02:28:06.945Z,16.60
2022-09-04T02:30:54.521Z,16.60
2022-09-04T02:33:31.113Z,16.60
2022-09-04T02:36:42.403Z,16.70
2022-09-04T02:39:29.284Z,16.70
2022-09-04T02:42:35.745Z,16.70
2022-09-04T02:45:35.906Z,16.70
2022-09-04T02:48:15.694Z,16.80
2022-09-04T02:51:38.921Z,16.80
2022-09-04T02:54:17.799Z,16.90
2022-09-04T02:57:24.390Z,16.90
2022-09-04T03:00:20.075Z,16.90
2022-09-04T03:03:22.138Z,16.90
2022-09-04T03:06:10.318Z,17.00
2022-09-04T03:08:47.010Z,17.00
2022-09-04T03:11:31.870Z,17.00
2022-09-04T03:14:10.287Z,17.00
2022-09-04T03:16:37.938Z,17.00
2022-09-04T03:19:26.412Z,17.00
2022-09-04T03:22:10.631Z,17.00
2022-09-04T03:25:08.883Z,17.00
2022-09-04T03:27:37.436Z,17.10
2022-09-04T03:30:10.419Z,17.10
2022-09-04T03:33:08.749Z,17.10
2022-09-04T03:36:07.401Z,17.20
2022-09-04T03:38:44.718Z,17.20
2022-09-04T03:41:18.374Z,17.20
2022-09-04T03:44:12.180Z,17.30
2022-09-04T03:47:09.621Z,17.20
2022-09-04T03:50:05.386Z,17.20
2022-09-04T03:52:49.265Z,17.20
2022-09-04T03:55:59.330Z,17.20
2022-09-04T03:59:01.368Z,17.10
2022-09-04T04:02:00.162Z,17.10
2022-09-04T04:04:39.875Z,17.00
2022-09-04T04:07:27.713Z,17.00
2022-09-04T04:10:22.039Z,17.10
2022-09-04T04:13:16.598Z,17.00
2022-09-04T04:15:56.349Z,17.00
2022-09-04T04:18:44.883Z,16.90
2022-09-04T04:21:33.807Z,17.00
2022-09-04T04:24:10.286Z,17.00
2022-09-04T04:27:09.009Z,17.00
2022-09-04T04:29:53.661Z,17.00
2022-09-04T04:32:30.356Z,17.10
2022-09-04T04:35:16.877Z,17.00
2022-09-04T04:37:51.690Z,17.00
2022-09-04T04:40:56.476Z,17.00
2022-09-04T04:43:45.392Z,17.10
2022-09-04T04:46:48.352Z,17.00
2022-09-04T04:49:34.083Z,17.10
2022-09-04T04:52:32.603Z,17.00
2022-09-04T04:55:40.344Z,17.00
2022-09-04T04:58:24.919Z,17.00
2022-09-04T05:01:09.537Z,17.10
2022-09-04T05:03:52.117Z,17.10
2022-09-04T05:06:38.137Z,17.20
2022-09-04T05:09:15.274Z,17.20
2022-09-04T05:11:42.857Z,17.30
2022-09-04T05:14:43.892Z,17.40
2022-09-04T05:17:24.769Z,17.40
2022-09-04T05:20:07.277Z,17.40
2022-09-04T05:22:42.431Z,17.50
2022-09-04T05:25:29.853Z,17.40
2022-09-04T05:28:05.142Z,17.40
2022-09-04T05:30:53.919Z,17.50
2022-09-04T05:33:44.929Z,17.50
2022-09-04T05:36:37.416Z,17.60
2022-09-04T05:39:27.737Z,17.70
2022-09-04T05:42:24.373Z,17.70
2022-09-04T05:45:02.282Z,17.70
2022-09-04T05:47:50.964Z,17.70
2022-09-04T05:50:27.840Z,17.70
2022-09-04T05:53:20.174Z,17.70
2022-09-04T05:56:12.471Z,17.80
2022-09-04T05:59:04.537Z,17.80
2022-09-04T06:02:09.565Z,17.90
2022-09-04T06:04:59.216Z,17.90
2022-09-04T06:07:32.596Z,17.90
2022-09-04T06:10:00.302Z,17.90
2022-09-04T06:12:54.018Z,17.90
2022-09-04T06:15:37.661Z,18.00
2022-09-04T06:18:17.886Z,18.00
2022-09-04T06:21:03.613Z,18.00
2022-09-04T06:24:05.503Z,18.00
2022-09-04T06:27:02.416Z,18.00
2022-09-04T06:30:02.432Z,18.10
2022-09-04T06:33:02.407Z,18.20
2022-09-04T06:35:49.316Z,18.20
2022-09-04T06:38:41.729Z,18.20
2022-09-04T06:41:49.928Z,18.20
2022-09-04T06:44:38.245Z,18.30
2022-09-04T06:47:24.021Z,18.30
2022-09-04T06:50:01.894Z,18.40
2022-09-04T06:52:46.299Z,18.30
2022-09-04T06:55:25.811Z,18.30
2022-09-04T06:58:16.177Z,18.40
2022-09-04T07:01:12.255Z,18.40
2022-09-04T07:04:01.503Z,18.50
2022-09-04T07:06:55.499Z,18.50
2022-09-04T07:09:33.167Z,18.70
2022-09-04T07:12:32.233Z,18.80
2022-09-04T07:15:15.552Z,18.80
2022-09-04T07:18:04.536Z,18.90
2022-09-04T07:21:11.486Z,18.80
2022-09-04T07:24:00.965Z,18.80
2022-09-04T07:26:59.671Z,18.80
2022-09-04T07:29:40.551Z,18.90
2022-09-04T07:32:23.813Z,19.00
2022-09-04T07:35:02.386Z,19.10
2022-09-04T07:37:44.187Z,19.10
2022-09-04T07:40:23.314Z,19.10
2022-09-04T07:43:07.634Z,19.30
2022-09-04T07:45:41.106Z,19.40
2022-09-04T07:48:20.227Z,19.50
2022-09-04T07:51:11.314Z,19.40
2022-09-04T07:53:54.974Z,19.50
2022-09-04T07:56:30.170Z,19.50
2022-09-04T07:59:35.770Z,19.60
2022-09-04T08:02:47.746Z,19.70
2022-09-04T08:05:30.452Z,19.70
2022-09-04T08:08:40.605Z,19.90
2022-09-04T08:11:39.017Z,20.00
2022-09-04T08:14:28.488Z,20.20
2022-09-04T08:17:25.071Z,20.40
2022-09-04T08:20:12.624Z,20.30
2022-09-04T08:23:05.848Z,20.30
2022-09-04T08:25:56.097Z,20.40
2022-09-04T08:29:09.009Z,20.30
2022-09-04T08:32:09.709Z,20.40
2022-09-04T08:35:04.099Z,20.40
2022-09-04T08:37:38.344Z,20.40
2022-09-04T08:40:28.485Z,20.50
2022-09-04T08:43:15.528Z,20.60
2022-09-04T08:46:06.700Z,20.60
2022-09-04T08:48:56.415Z,20.70
2022-09-04T08:51:45.841Z,20.80
2022-09-04T08:54:39.612Z,20.90
2022-09-04T08:57:25.880Z,21.10
2022-09-04T09:00:20.857Z,21.20
2022-09-04T09:03:26.387Z,21.40
2022-09-04T09:06:25.914Z,21.40
2022-09-04T09:09:31.821Z,21.50
2022-09-04T09:12:40.793Z,21.60
2022-09-04T09:15:19.139Z,21.60
2022-09-04T09:17:59.593Z,21.70
2022-09-04T09:20:30.622Z,21.90
2022-09-04T09:23:39.370Z,22.30
2022-09-04T09:26:31.467Z,22.50
2022-09-04T09:29:27.872Z,22.60
2022-09-04T09:32:17.230Z,22.80
2022-09-04T09:35:09.027Z,23.00
2022-09-04T09:38:14.499Z,23.20
2022-09-04T09:41:07.069Z,23.30
2022-09-04T09:44:05.672Z,23.40
2022-09-04T09:46:59.306Z,23.30
2022-09-04T09:49:59.985Z,23.40
2022-09-04T09:52:39.582Z,23.40
2022-09-04T09:55:09.967Z,23.30
2022-09-04T09:57:46.388Z,23.40
2022-09-04T10:00:19.525Z,23.40
2022-09-04T10:03:02.386Z,23.60
2022-09-04T10:06:07.338Z,23.60
2022-09-04T10:09:15.028Z,23.30
2022-09-04T10:11:45.688Z,23.40
2022-09-04T10:14:41.756Z,23.40
2022-09-04T10:17:15.938Z,23.30
2022-09-04T10:19:51.327Z,23.40
2022-09-04T10:22:39.736Z,23.80
2022-09-04T10:25:36.852Z,23.90
2022-09-04T10:28:25.979Z,23.70
2022-09-04T10:30:53.618Z,23.70
2022-09-04T10:33:30.838Z,24.20
2022-09-04T10:36:18.374Z,24.60
2022-09-04T10:39:13.813Z,25.20
2022-09-04T10:42:12.324Z,25.60
2022-09-04T10:45:03.909Z,25.90
2022-09-04T10:47:58.754Z,26.20
2022-09-04T10:50:56.247Z,26.60
2022-09-04T10:53:57.550Z,26.70
2022-09-04T10:56:39.418Z,27.20
2022-09-04T10:59:43.972Z,27.60
2022-09-04T11:02:11.640Z,27.70
2022-09-04T11:05:19.346Z,28.40
2022-09-04T11:07:57.225Z,29.50
2022-09-04T11:10:47.542Z,31.80
2022-09-04T11:13:34.032Z,33.60
2022-09-04T11:16:34.531Z,35.40
2022-09-04T11:19:14.163Z,35.70
2022-09-04T11:21:57.063Z,35.40
2022-09-04T11:24:41.532Z,35.70
2022-09-04T11:27:37.033Z,36.10
2022-09-04T11:30:30.897Z,36.70
2022-09-04T11:33:37.248Z,36.60
2022-09-04T11:36:22.807Z,37.70
2022-09-04T11:38:56.186Z,37.40
2022-09-04T11:41:45.584Z,38.20
2022-09-04T11:44:33.438Z,38.20
2022-09-04T11:47:12.181Z,38.60
2022-09-04T11:49:45.456Z,39.10
2022-09-04T11:52:26.511Z,39.90
2022-09-04T11:55:26.561Z,40.00
2022-09-04T11:58:00.243Z,39.30
2022-09-04T12:00:42.926Z,37.00
2022-09-04T12:03:49.469Z,36.60
2022-09-04T12:06:35.048Z,36.90
2022-09-04T12:09:17.297Z,36.90
2022-09-04T12:12:14.259Z,36.60
2022-09-04T12:15:12.314Z,35.00
2022-09-04T12:18:01.142Z,34.40
2022-09-04T12:20:57.947Z,34.20
2022-09-04T12:23:59.609Z,34.30
2022-09-04T12:27:05.347Z,35.00
2022-09-04T12:29:59.831Z,36.40
2022-09-04T12:33:01.107Z,38.00
2022-09-04T12:35:50.643Z,40.00
2022-09-04T12:38:25.485Z,41.00
2022-09-04T12:41:05.239Z,41.10
2022-09-04T12:43:51.428Z,41.70
2022-09-04T12:46:37.606Z,41.90
2022-09-04T12:49:26.084Z,42.90
2022-09-04T12:52:14.310Z,42.70
2022-09-04T12:55:09.907Z,43.00
2022-09-04T12:57:48.621Z,42.30
2022-09-04T13:00:17.526Z,42.00
2022-09-04T13:03:18.601Z,42.10
2022-09-04T13:06:04.628Z,42.00
2022-09-04T13:09:11.048Z,42.00
2022-09-04T13:12:02.579Z,42.90
2022-09-04T13:14:39.502Z,42.90
2022-09-04T13:17:29.755Z,42.80
2022-09-04T13:20:28.032Z,43.10
2022-09-04T13:23:21.148Z,43.30
2022-09-04T13:26:11.509Z,44.30
2022-09-04T13:28:52.774Z,44.90
2022-09-04T13:31:40.991Z,45.40
2022-09-04T13:34:34.091Z,44.80
2022-09-04T13:37:07.650Z,44.10
2022-09-04T13:39:44.478Z,43.80
2022-09-04T13:42:30.331Z,44.40
2022-09-04T13:45:23.661Z,44.30
2022-09-04T13:48:18.614Z,44.10
2022-09-04T13:50:48.750Z,44.00
2022-09-04T13:53:57.396Z,41.40
2022-09-04T13:56:34.260Z,38.30
2022-09-04T13:59:09.660Z,35.90
2022-09-04T14:01:45.968Z,34.10
2022-09-04T14:04:26.459Z,34.30
2022-09-04T14:07:06.133Z,36.80
2022-09-04T14:09:41.793Z,39.10
2022-09-04T14:12:29.419Z,39.10
2022-09-04T14:15:19.427Z,37.30
2022-09-04T14:18:00.911Z,37.50
2022-09-04T14:20:40.539Z,40.00
2022-09-04T14:23:32.680Z,41.90
2022-09-04T14:26:32.653Z,43.30
2022-09-04T14:29:29.105Z,42.70
2022-09-04T14:32:19.864Z,41.00
2022-09-04T14:34:56.093Z,38.80
2022-09-04T14:37:46.368Z,36.80
2022-09-04T14:40:28.054Z,35.80
2022-09-04T14:43:01.531Z,37.00
2022-09-04T14:45:37.321Z,38.50
2022-09-04T14:48:11.504Z,40.10
2022-09-04T14:50:51.875Z,41.60
2022-09-04T14:53:33.154Z,42.30
2022-09-04T14:56:14.030Z,42.50
2022-09-04T14:58:51.886Z,41.50
2022-09-04T15:01:22.329Z,39.20
2022-09-04T15:04:19.031Z,38.40
2022-09-04T15:07:12.454Z,38.30
2022-09-04T15:09:42.792Z,37.40
2022-09-04T15:12:25.520Z,37.70
2022-09-04T15:15:07.618Z,38.90
2022-09-04T15:17:39.302Z,40.00
2022-09-04T15:20:16.993Z,38.40
2022-09-04T15:22:47.870Z,36.60
2022-09-04T15:25:18.243Z,34.70
2022-09-04T15:28:02.267Z,33.30
2022-09-04T15:30:38.738Z,32.00
2022-09-04T15:33:14.551Z,31.30
2022-09-04T15:35:42.335Z,31.10
2022-09-04T15:38:22.384Z,31.80
2022-09-04T15:41:16.127Z,31.80
2022-09-04T15:43:53.249Z,32.30
2022-09-04T15:46:33.829Z,34.30
2022-09-04T15:49:20.431Z,35.60
2022-09-04T15:52:03.188Z,37.10
2022-09-04T15:54:39.978Z,38.70
2022-09-04T15:57:46.366Z,39.10
2022-09-04T16:00:20.664Z,39.10
2022-09-04T16:03:08.987Z,39.20
2022-09-04T16:05:45.016Z,39.20
2022-09-04T16:08:56.720Z,38.90
2022-09-04T16:11:27.467Z,38.80
2022-09-04T16:13:59.742Z,38.70
2022-09-04T16:16:45.326Z,38.70
2022-09-04T16:19:41.607Z,39.00
2022-09-04T16:22:18.103Z,39.50
2022-09-04T16:24:53.960Z,40.30
2022-09-04T16:27:25.818Z,40.40
2022-09-04T16:29:58.859Z,40.40
2022-09-04T16:32:29.899Z,40.80
2022-09-04T16:35:02.528Z,41.00
2022-09-04T16:37:51.479Z,40.90
2022-09-04T16:40:22.450Z,40.80
2022-09-04T16:43:11.992Z,40.70
2022-09-04T16:45:44.375Z,40.40
2022-09-04T16:48:37.275Z,39.60
2022-09-04T16:51:40.085Z,37.60
2022-09-04T16:54:17.566Z,35.40
2022-09-04T16:56:50.102Z,33.20
2022-09-04T16:59:34.275Z,32.00
2022-09-04T17:02:08.866Z,31.00
2022-09-04T17:04:47.264Z,30.20
2022-09-04T17:07:23.879Z,29.40
2022-09-04T17:10:03.243Z,28.80
2022-09-04T17:12:56.283Z,28.30
2022-09-04T17:15:40.306Z,27.90
2022-09-04T17:18:26.639Z,27.70
2022-09-04T17:25:57.363Z,27.40
2022-09-04T17:29:17.136Z,27.20
2022-09-04T17:29:18.360Z,27.00
2022-09-04T17:30:40.198Z,26.80
2022-09-04T17:39:41.481Z,26.70
2022-09-04T17:40:37.986Z,26.60
2022-09-04T17:40:41.901Z,26.40
2022-09-04T17:42:23.033Z,26.30
2022-09-04T17:44:54.275Z,26.10
2022-09-04T17:47:42.598Z,25.90
2022-09-04T17:50:16.441Z,25.70
2022-09-04T17:53:10.418Z,25.50
2022-09-04T17:56:06.754Z,25.40
2022-09-04T17:58:53.964Z,25.30
2022-09-04T18:01:25.075Z,25.10
2022-09-04T18:04:21.997Z,25.00
2022-09-04T18:06:55.552Z,24.90
2022-09-04T18:09:37.138Z,24.80
2022-09-04T18:12:20.265Z,24.70
2022-09-04T18:15:32.341Z,24.60
2022-09-04T18:17:51.811Z,24.50
2022-09-04T18:20:37.457Z,24.30
2022-09-04T18:23:22.552Z,24.20
2022-09-04T18:25:55.908Z,24.00
2022-09-04T18:28:33.660Z,24.00
2022-09-04T18:37:21.794Z,23.90
2022-09-04T18:37:27.102Z,24.00
2022-09-04T18:37:44.694Z,23.80
2022-09-04T18:43:26.331Z,23.70
2022-09-04T18:49:49.769Z,23.60
2022-09-04T18:50:38.071Z,23.50
2022-09-04T18:50:53.244Z,23.40
2022-09-04T18:52:20.842Z,23.30
2022-09-04T18:54:54.520Z,23.20
2022-09-04T18:57:45.605Z,23.10
2022-09-04T19:00:30.567Z,23.00
2022-09-04T19:03:18.427Z,23.00
2022-09-04T19:05:50.746Z,22.90
2022-09-04T19:08:29.810Z,22.80
2022-09-04T19:11:09.394Z,22.70
2022-09-04T19:13:57.029Z,22.60
2022-09-04T19:16:41.914Z,22.50
2022-09-04T19:19:17.436Z,22.50
2022-09-04T19:21:57.671Z,22.50
2022-09-04T19:24:37.355Z,22.40
2022-09-04T19:27:20.644Z,22.30
2022-09-04T19:30:18.923Z,22.30
2022-09-04T19:33:02.753Z,22.30
2022-09-04T19:35:37.185Z,22.30
2022-09-04T19:45:55.269Z,22.20
2022-09-04T19:46:00.062Z,22.10
2022-09-04T19:46:04.112Z,22.20
2022-09-04T19:47:28.472Z,22.00
2022-09-04T19:53:18.246Z,21.90
2022-09-04T19:53:38.723Z,22.00
2022-09-04T19:56:20.143Z,21.90
2022-09-04T19:58:57.885Z,21.80
2022-09-04T20:01:38.923Z,21.70
2022-09-04T20:04:41.379Z,21.70
2022-09-04T20:07:24.467Z,21.70
2022-09-04T20:09:56.460Z,21.60
2022-09-04T20:12:27.805Z,21.60
2022-09-04T20:15:21.369Z,21.60
2022-09-04T20:18:19.650Z,21.50
2022-09-04T20:20:58.031Z,21.50
2022-09-04T20:23:44.145Z,21.40
2022-09-04T20:26:24.681Z,21.30
2022-09-04T20:28:59.738Z,21.30
2022-09-04T20:31:42.057Z,21.30
2022-09-04T20:34:21.303Z,21.20
2022-09-04T20:37:11.353Z,21.20
2022-09-04T20:39:50.592Z,21.10
2022-09-04T20:42:56.553Z,21.10
2022-09-04T20:51:09.071Z,21.10
2022-09-04T20:52:57.194Z,21.00
2022-09-04T20:53:05.827Z,21.00
2022-09-04T20:55:20.028Z,21.00
2022-09-04T21:03:11.376Z,20.90
2022-09-04T21:03:22.838Z,20.70
2022-09-04T21:04:47.326Z,20.60
2022-09-04T21:07:37.794Z,20.50
2022-09-04T21:10:23.889Z,20.60
2022-09-04T21:13:22.276Z,20.50
2022-09-04T21:16:21.713Z,20.50
2022-09-04T21:19:27.986Z,20.50
2022-09-04T21:22:23.072Z,20.40
2022-09-04T21:25:34.988Z,20.40
2022-09-04T21:28:49.355Z,20.20
2022-09-04T21:31:46.683Z,20.10
2022-09-04T21:34:47.782Z,20.00
2022-09-04T21:37:27.229Z,20.00
2022-09-04T21:40:28.000Z,19.90
2022-09-04T21:43:35.868Z,19.90
2022-09-04T21:46:48.429Z,19.80
2022-09-04T21:49:26.783Z,19.70
2022-09-04T21:52:03.799Z,19.70
2022-09-04T21:59:01.962Z,19.70
2022-09-04T22:02:31.672Z,19.60
2022-09-04T22:02:42.951Z,19.50
2022-09-04T22:03:21.906Z,19.60
2022-09-04T22:06:15.654Z,19.50
2022-09-04T22:13:32.439Z,19.40
2022-09-04T22:13:33.661Z,19.40
2022-09-04T22:14:37.552Z,19.40
2022-09-04T22:17:23.120Z,19.40
2022-09-04T22:20:20.183Z,19.40
2022-09-04T22:23:21.234Z,19.40
2022-09-04T22:26:23.783Z,19.40
2022-09-04T22:29:39.450Z,19.40
2022-09-04T22:32:45.007Z,19.40
2022-09-04T22:35:39.914Z,19.30
2022-09-04T22:38:28.811Z,19.10
2022-09-04T22:41:21.152Z,18.90
2022-09-04T22:44:11.557Z,18.90
2022-09-04T22:46:50.889Z,18.80
2022-09-04T22:49:49.523Z,18.80
2022-09-04T22:52:40.462Z,18.80
2022-09-04T22:55:40.217Z,18.80
2022-09-04T22:58:39.015Z,18.80
2022-09-04T23:01:14.509Z,18.80
2022-09-04T23:04:06.184Z,18.80
2022-09-04T23:11:15.518Z,18.80
2022-09-04T23:13:49.105Z,18.80
2022-09-04T23:13:52.627Z,18.80
2022-09-04T23:15:34.743Z,18.80
2022-09-04T23:23:07.676Z,18.80
2022-09-04T23:26:35.911Z,18.80
2022-09-04T23:26:44.823Z,18.80
2022-09-04T23:28:02.802Z,18.70
2022-09-04T23:31:19.912Z,18.60
2022-09-04T23:34:08.079Z,18.60
2022-09-04T23:36:49.405Z,18.50
2022-09-04T23:39:27.178Z,18.50
2022-09-04T23:42:41.150Z,18.40
2022-09-04T23:46:01.921Z,18.40
2022-09-04T23:49:05.554Z,18.40
2022-09-04T23:52:12.855Z,18.40
2022-09-04T23:55:17.599Z,18.40
2022-09-04T23:58:00.632Z,18.40
